富山空港の過去48時間の天気

富山空港 (Toyama)

現在時刻: 5/28 14:12 JST (5/28 05:12 UTC) 以下の時間は現地時間です。

過去48時間のMETAR気象情報
時間 風向 風速(m/s) 視程 気温(℃) 湿度(%) 気圧(hPa) 天気現象
28 13:00 5 10km以上 26 26 1007
28 12:00 3 10km以上 23 38 1007
28 11:00 不定 1 10km以上 23 38 1008
28 10:00 不定 2 10km以上 22 50 1008
28 09:00 南西 2 10km以上 20 64 1008
28 08:00 不定 1 9000m 18 77 1008
28 07:00 不定 1 8000m 16 82 1009
27 21:00 北北西 2 10km以上 18 77 1008
27 20:00 西北西 3 10km以上 19 78 1008
27 19:00 西北西 5 10km以上 19 78 1007
27 18:00 西北西 5 10km以上 20 73 1006
27 17:00 西 6 10km以上 22 65 1006
27 16:00 西北西 7 10km以上 23 61 1005
27 15:00 西 7 10km以上 24 54 1004
27 14:00 西 6 10km以上 24 50 1004
27 13:00 西 7 10km以上 23 53 1004
27 12:00 西 7 10km以上 22 57 1005
27 11:00 西 7 10km以上 23 50 1005
27 10:00 西 7 10km以上 23 50 1005
27 09:00 西 6 10km以上 23 50 1005
27 08:00 不定 1 10km以上 22 60 1005
27 07:00 不定 1 10km以上 19 68 1005
RJNT 280400Z 01009KT 330V040 9999 FEW030 SCT/// 26/05 Q1007
RJNT 280300Z VRB05KT 9999 FEW030 23/08 Q1007
RJNT 280200Z VRB02KT 9999 FEW030 23/08 Q1008
RJNT 280100Z VRB03KT 9999 FEW025 BKN/// 22/11 Q1008
RJNT 280000Z 22003KT 130V280 9999 FEW020 BKN/// 20/13 Q1008
RJNT 272300Z VRB01KT 9000 FEW015 OVC/// 18/14 Q1008
RJNT 272200Z VRB02KT 8000 FEW015 OVC/// 16/13 Q1009
RJNT 271200Z 33004KT 9999 SCT015 BKN/// 18/14 Q1008
RJNT 271100Z 30005KT 250V010 9999 FEW015 BKN/// 19/15 Q1008
RJNT 271000Z 30009KT 9999 FEW030 SCT/// 19/15 Q1007
RJNT 270900Z 29010KT 250V330 9999 FEW030 SCT/// 20/15 Q1006
RJNT 270800Z 28011KT 250V320 9999 FEW030 SCT/// 22/15 Q1006
RJNT 270700Z 29013KT 9999 FEW030 SCT050 BKN/// 23/15 Q1005
RJNT 270600Z 28013KT 250V320 9999 FEW030 SCT/// 24/14 Q1004
RJNT 270500Z 28011KT 9999 FEW030 SCT080 BKN/// 24/13 Q1004
RJNT 270400Z 27013KT 9999 FEW030 BKN/// 23/13 Q1004
RJNT 270300Z 27013KT 9999 FEW030 BKN100 BKN/// 22/13 Q1005
RJNT 270200Z 28013KT 240V310 9999 FEW030 BKN120 BKN/// 23/12 Q1005
RJNT 270100Z 27013KT 240V300 9999 FEW030 BKN/// 23/12 Q1005
RJNT 270000Z 27011KT 9999 FEW015 SCT/// 23/12 Q1005
RJNT 262300Z VRB01KT 9999 FEW010 SCT/// 22/14 Q1005
RJNT 262200Z VRB02KT 9999 FEW007 SCT/// 19/13 Q1005